Google+

Arquivo mensal: abril 2013

  1. Os Componentes de um Motor Aeronáutico

    30 de abril de 2013 por Rodrigo Gibi

    Os Componentes de um Motor Aeronáutico são: Cilindro: é onde o combustível é admitido, comprimido e queimado. De material resistente, leve …
    Continue lendo

  2. Base da Nuvem

    29 de abril de 2013 por Rodrigo Gibi

    Você sabia que é possível calcular a altura da base de uma nuvem tendo apenas a temperatura e o ponto …
    Continue lendo

  3. Navegação

    29 de abril de 2013 por Rodrigo Gibi

    A arte de navegar entre dois pontos, determinando a Localização e Orientação de uma aeronave. Pode ser VISUAL (de Contato), onde o …
    Continue lendo

  4. Motores a Pistão

    9 de abril de 2013 por Rodrigo Gibi

    MOTORES A PISTÃO São usados basicamente em todos os aviões de pequeno porte. O motor aproveita a energia da queima …
    Continue lendo

  5. TAF – 03/04/2013

    3 de abril de 2013 por Rodrigo Gibi

    Boa noite!   TAF SBMT 031600Z 0318/0406 06005KT 8000 SCT030 TX26/0319Z TN20/0405Z PROB40 TEMPO 0318/0324 24010KT 5000 TSRA BKN012 FEW030CB …
    Continue lendo

  6. Planes – Disney Pixar

    2 de abril de 2013 por Rodrigo Gibi

    I can´t believe they did it!

  7. O dia em que encontrei o A380

    2 de abril de 2013 por Rodrigo Gibi

    Absolutamente anormal! Um gigante, uma obra de arte, impressionante. Pra dizer o mínimo desta aeronave que, em tudo, é maximizada. …
    Continue lendo